Rockenbach Airport

Jump to: basic info | weather | runways | comments

Related pages: nearby airports | nearby navaids | notams | map

Basic information (top)

Codes: LL97
Location: lon 42.338902, lat -88.084801, elev 800 ft / 244 m msl
Status: small_airport

Weather (top)

Current conditions for Waukegan Regional Airport 11nm (20km) ENE (rec'd 2014/08/01 10:52Z):

KUGN 011052Z AUTO 00000KT 9SM CLR 17/14 A3005 RMK AO2 SLP168 T01670139

Airport forecast for Kenosha Regional Airport 17nm (31km) NNE (rec'd 2014/08/01 06:21Z):

TAF KENW 010520Z 0106/0206 25003KT P6SM FEW100 
     FM011800 15007KT P6SM SCT050 
     FM012000 15007KT P6SM SCT050 
     FM020200 VRB03KT P6SM SCT050 
     FM020500 00000KT 3SM BR SKC

Runways (top)

N/S: 2,000 x 100 ft (610 x 30 m) — grass — not lighted

Latest comments (top)

No comments yet for Rockenbach Airport

More... (top)

See also NOTAMs and nearby airports and navaids, or visit the Rockenbach Airport page at the main OurAirports website..